Time;durP1;ratioP1;P1;durP2;ratioP2;P2;SDS_P1;SDS_P2;PMS_P1;PMS_P2;Temp;Humidity;BMP_temperature;BMP_pressure;BME280_temperature;BME280_humidity;BME280_pressure;Samples;Min_cycle;Max_cycle;Signal;HPM_P1;HPM_P2
2022/04/23 00:01:10;;;;;;;12.93;7.20;;;11.40;96.80;;;;;;5097242;28;20077;-76
2022/04/23 00:03:36;;;;;;;10.68;7.35;;;11.40;96.90;;;;;;5115126;28;20506;-77
2022/04/23 00:06:02;;;;;;;10.00;7.68;;;11.40;97.30;;;;;;5114493;28;20031;-77
2022/04/23 00:08:28;;;;;;;13.68;8.88;;;11.40;97.00;;;;;;5096818;28;20047;-76
2022/04/23 00:10:54;;;;;;;11.75;9.00;;;11.40;97.20;;;;;;5096480;28;20040;-77
2022/04/23 00:13:20;;;;;;;10.00;9.00;;;11.30;97.10;;;;;;5096508;28;20065;-76
2022/04/23 00:15:45;;;;;;;11.20;9.57;;;11.40;97.00;;;;;;5096526;28;20122;-76
2022/04/23 00:18:11;;;;;;;10.77;9.18;;;11.40;97.10;;;;;;5096521;28;20126;-76
2022/04/23 00:20:37;;;;;;;10.90;9.18;;;11.50;97.10;;;;;;5114866;28;20050;-76
2022/04/23 00:23:06;;;;;;;12.43;9.30;;;11.40;97.00;;;;;;5096114;28;20131;-76
2022/04/23 00:25:33;;;;;;;11.00;9.90;;;11.50;97.10;;;;;;5096490;28;20069;-77
2022/04/23 00:27:59;;;;;;;10.95;9.85;;;11.50;97.10;;;;;;5095959;28;20085;-76
2022/04/23 00:30:25;;;;;;;12.25;9.75;;;11.50;97.00;;;;;;5114542;28;20067;-76
2022/04/23 00:32:50;;;;;;;10.77;9.68;;;11.50;97.00;;;;;;5114017;28;20089;-77
2022/04/23 00:35:17;;;;;;;11.50;9.70;;;11.50;97.00;;;;;;5114405;28;20367;-77
2022/04/23 00:37:44;;;;;;;10.45;9.00;;;11.40;96.90;;;;;;5096385;28;20088;-78
2022/04/23 00:40:16;;;;;;;11.38;9.02;;;11.50;97.00;;;;;;5062785;28;20056;-77
2022/04/23 00:42:55;;;;;;;10.55;9.40;;;11.50;97.00;;;;;;5114364;28;20083;-77
2022/04/23 00:45:27;;;;;;;11.00;8.60;;;11.50;97.00;;;;;;5079959;28;20162;-77
2022/04/23 00:47:53;;;;;;;11.77;8.65;;;11.50;97.10;;;;;;5095443;28;20043;-77
2022/04/23 00:50:21;;;;;;;13.07;8.98;;;11.40;97.20;;;;;;5079270;28;20537;-76
2022/04/23 00:52:52;;;;;;;10.20;8.85;;;11.40;97.30;;;;;;5096192;28;20038;-77
2022/04/23 00:55:18;;;;;;;13.05;8.93;;;11.40;97.30;;;;;;5095974;28;20383;-77
2022/04/23 00:57:44;;;;;;;13.40;8.60;;;11.40;97.40;;;;;;5095916;28;20042;-76
2022/04/23 01:00:10;;;;;;;12.02;8.20;;;11.30;97.80;;;;;;5113546;28;20043;-77
2022/04/23 01:02:36;;;;;;;9.25;7.68;;;11.30;97.70;;;;;;5095486;28;20126;-77
2022/04/23 01:05:03;;;;;;;12.60;7.95;;;11.30;97.70;;;;;;5078515;28;20118;-76
2022/04/23 01:07:29;;;;;;;8.95;7.78;;;11.20;97.80;;;;;;5095367;28;20047;-76
2022/04/23 01:09:55;;;;;;;11.73;8.00;;;11.20;97.90;;;;;;5095305;28;20036;-77
2022/04/23 01:12:20;;;;;;;13.50;8.73;;;11.20;98.00;;;;;;5078672;28;20082;-76
2022/04/23 01:14:57;;;;;;;10.60;7.75;;;11.10;98.20;;;;;;5095865;28;20052;-77
2022/04/23 01:17:22;;;;;;;9.57;8.13;;;11.10;98.20;;;;;;5113743;28;20095;-76
2022/04/23 01:19:48;;;;;;;9.65;7.55;;;11.10;98.40;;;;;;5095721;28;20044;-77
2022/04/23 01:22:14;;;;;;;11.88;7.70;;;11.00;98.40;;;;;;5095236;28;20055;-76
2022/04/23 01:24:40;;;;;;;11.35;8.13;;;11.00;98.60;;;;;;5078380;28;20152;-77
2022/04/23 01:27:05;;;;;;;11.68;8.35;;;11.00;98.60;;;;;;5112988;28;20122;-77
2022/04/23 01:29:31;;;;;;;11.90;8.35;;;10.90;98.80;;;;;;5095324;28;20065;-77
2022/04/23 01:31:57;;;;;;;12.18;7.57;;;10.90;99.00;;;;;;5094758;28;20039;-85
2022/04/23 01:34:23;;;;;;;9.32;8.18;;;10.90;99.10;;;;;;5112218;28;20042;-77
2022/04/23 01:36:48;;;;;;;9.73;7.90;;;10.80;99.30;;;;;;5113296;28;20122;-76
2022/04/23 01:39:14;;;;;;;10.70;8.00;;;10.70;99.40;;;;;;5112891;28;20058;-76
2022/04/23 01:41:40;;;;;;;13.20;8.57;;;10.70;99.60;;;;;;5095075;28;20049;-77
2022/04/23 01:44:05;;;;;;;12.07;8.45;;;10.70;99.90;;;;;;5094624;28;20036;-77
2022/04/23 01:46:31;;;;;;;9.38;8.38;;;10.70;99.80;;;;;;5113206;28;20035;-76
2022/04/23 01:48:57;;;;;;;14.05;8.88;;;10.70;99.90;;;;;;5095347;28;20376;-77
2022/04/23 01:51:23;;;;;;;9.98;8.30;;;10.70;99.90;;;;;;5077884;28;20495;-77
2022/04/23 01:53:49;;;;;;;12.68;9.15;;;10.60;99.90;;;;;;5113180;28;20074;-76
2022/04/23 01:56:14;;;;;;;12.60;8.43;;;10.60;99.90;;;;;;5112719;28;20065;-77
2022/04/23 01:58:40;;;;;;;12.52;9.75;;;10.60;99.90;;;;;;5094932;28;20043;-76
2022/04/23 02:01:06;;;;;;;10.63;8.88;;;10.60;99.90;;;;;;5094912;28;20051;-77
2022/04/23 02:03:34;;;;;;;13.65;9.65;;;10.50;99.90;;;;;;5095003;28;20375;-78
2022/04/23 02:06:00;;;;;;;9.43;8.50;;;10.50;99.90;;;;;;5113029;28;20112;-76
2022/04/23 02:08:26;;;;;;;15.32;9.20;;;10.60;99.90;;;;;;5112310;28;20035;-77
2022/04/23 02:10:52;;;;;;;11.38;9.25;;;10.50;99.90;;;;;;5113088;28;20101;-77
2022/04/23 02:13:18;;;;;;;10.85;8.88;;;10.50;99.90;;;;;;5094286;28;20479;-76
2022/04/23 02:15:43;;;;;;;12.77;9.05;;;10.50;99.90;;;;;;5099203;28;20051;-77
2022/04/23 02:18:09;;;;;;;12.65;9.60;;;10.50;99.90;;;;;;5098664;28;20051;-77
2022/04/23 02:20:35;;;;;;;10.63;8.95;;;10.50;99.90;;;;;;5099134;28;20043;-77
2022/04/23 02:23:01;;;;;;;12.77;9.35;;;10.50;99.90;;;;;;5099125;28;20043;-78
2022/04/23 02:25:26;;;;;;;13.15;9.23;;;10.40;99.90;;;;;;5098401;28;20046;-76
2022/04/23 02:27:52;;;;;;;10.88;9.35;;;10.40;99.90;;;;;;5116907;28;20035;-77
2022/04/23 02:30:19;;;;;;;14.20;9.95;;;10.40;99.90;;;;;;5098312;28;20047;-76
2022/04/23 02:32:45;;;;;;;14.45;9.60;;;10.40;99.90;;;;;;5098882;28;20031;-76
2022/04/23 02:35:11;;;;;;;12.18;9.57;;;10.30;99.90;;;;;;5098433;28;20088;-77
2022/04/23 02:37:37;;;;;;;11.75;9.18;;;10.30;99.90;;;;;;5081927;28;20126;-76
2022/04/23 02:40:06;;;;;;;13.38;10.45;;;10.30;99.90;;;;;;5098748;28;20075;-77
2022/04/23 02:42:33;;;;;;;12.77;9.88;;;10.30;99.90;;;;;;5098548;28;20413;-77
2022/04/23 02:45:00;;;;;;;13.38;10.38;;;10.30;99.90;;;;;;5065585;28;20047;-76
2022/04/23 02:47:29;;;;;;;11.52;10.02;;;10.30;99.90;;;;;;5116145;28;20083;-77
2022/04/23 02:49:55;;;;;;;13.68;10.25;;;10.20;99.90;;;;;;5081738;28;20035;-76
2022/04/23 02:52:21;;;;;;;13.50;10.13;;;10.20;99.90;;;;;;5098101;28;20543;-77
2022/04/23 02:54:46;;;;;;;12.32;10.43;;;10.20;99.90;;;;;;5081509;28;20427;-77
2022/04/23 02:57:12;;;;;;;13.63;10.15;;;10.20;99.90;;;;;;5115548;28;20036;-77
2022/04/23 02:59:39;;;;;;;14.95;10.05;;;10.10;99.90;;;;;;5098414;28;20043;-77
2022/04/23 03:02:05;;;;;;;16.42;10.30;;;10.10;99.90;;;;;;5116280;28;20119;-77
2022/04/23 03:04:31;;;;;;;12.80;10.15;;;10.10;99.90;;;;;;5115915;28;20110;-77
2022/04/23 03:06:56;;;;;;;13.63;10.32;;;10.10;99.90;;;;;;5097962;28;20442;-76
2022/04/23 03:09:22;;;;;;;11.48;9.93;;;10.10;99.90;;;;;;5115653;28;20391;-77
2022/04/23 03:11:48;;;;;;;11.98;10.05;;;10.10;99.90;;;;;;5097838;28;20075;-77
2022/04/23 03:14:14;;;;;;;12.30;10.35;;;10.10;99.90;;;;;;5115891;28;20460;-86
2022/04/23 03:16:39;;;;;;;14.25;10.15;;;10.10;99.90;;;;;;5116012;28;20534;-77
2022/04/23 03:19:05;;;;;;;11.38;10.27;;;10.00;99.90;;;;;;5116084;28;20160;-77
2022/04/23 03:21:30;;;;;;;17.13;10.77;;;10.00;99.90;;;;;;5080814;28;20081;-77
2022/04/23 03:23:56;;;;;;;11.73;9.82;;;10.00;99.90;;;;;;5115627;28;20378;-77
2022/04/23 03:26:22;;;;;;;13.38;10.05;;;10.00;99.90;;;;;;5097022;28;20040;-76
2022/04/23 03:28:47;;;;;;;12.38;10.30;;;10.00;99.90;;;;;;5097773;28;20046;-77
2022/04/23 03:31:13;;;;;;;12.90;10.38;;;9.90;99.90;;;;;;5115772;28;20046;-77
2022/04/23 03:33:39;;;;;;;14.52;10.57;;;9.90;99.90;;;;;;5097118;28;20122;-76
2022/04/23 03:36:05;;;;;;;11.65;9.60;;;9.90;99.90;;;;;;5097626;28;20101;-76
2022/04/23 03:38:31;;;;;;;13.35;9.95;;;9.90;99.90;;;;;;5080411;28;20376;-77
2022/04/23 03:40:56;;;;;;;12.98;10.25;;;9.80;99.90;;;;;;5063920;28;20556;-77
2022/04/23 03:43:25;;;;;;;14.60;10.48;;;9.80;99.90;;;;;;5115080;28;20043;-77
2022/04/23 03:45:52;;;;;;;13.35;10.30;;;9.80;99.90;;;;;;5115353;28;20075;-77
2022/04/23 03:48:18;;;;;;;12.15;10.48;;;9.80;99.90;;;;;;5115348;28;20053;-77
2022/04/23 03:50:44;;;;;;;11.38;9.57;;;9.80;99.90;;;;;;5096727;28;20118;-77
2022/04/23 03:53:11;;;;;;;11.65;9.88;;;9.80;99.90;;;;;;5097128;28;20563;-77
2022/04/23 03:55:36;;;;;;;13.07;10.02;;;9.70;99.90;;;;;;5114864;28;20042;-77
2022/04/23 03:58:02;;;;;;;11.15;9.82;;;9.70;99.90;;;;;;5063618;28;20035;-77
2022/04/23 04:00:31;;;;;;;11.15;9.90;;;9.70;99.90;;;;;;5096644;28;20035;-77
2022/04/23 04:02:57;;;;;;;13.02;10.05;;;9.80;99.90;;;;;;5096979;28;20040;-77
2022/04/23 04:05:23;;;;;;;12.52;10.23;;;9.70;99.90;;;;;;5096962;28;20040;-76
2022/04/23 04:07:49;;;;;;;12.95;9.50;;;9.70;99.90;;;;;;5096297;28;20126;-76
2022/04/23 04:10:17;;;;;;;11.55;10.25;;;9.60;99.90;;;;;;5097025;28;20427;-77
2022/04/23 04:12:42;;;;;;;12.55;9.75;;;9.60;99.90;;;;;;5062910;28;20392;-77
2022/04/23 04:15:09;;;;;;;15.13;10.52;;;9.60;99.90;;;;;;5113846;28;20047;-77
2022/04/23 04:17:35;;;;;;;11.50;10.20;;;9.60;99.90;;;;;;5079989;28;20043;-77
2022/04/23 04:20:10;;;;;;;12.65;9.88;;;9.60;99.90;;;;;;5079970;28;20075;-82
2022/04/23 04:22:36;;;;;;;14.30;10.40;;;9.60;99.90;;;;;;5064580;28;20039;-81
2022/04/23 04:25:02;;;;;;;12.13;9.65;;;9.50;99.90;;;;;;5096681;28;20487;-81
2022/04/23 04:27:28;;;;;;;11.90;9.73;;;9.50;99.90;;;;;;5063049;28;20039;-90
2022/04/23 04:29:53;;;;;;;10.70;9.50;;;9.60;99.90;;;;;;5063274;28;20046;-80
2022/04/23 04:32:20;;;;;;;13.05;9.98;;;9.50;99.90;;;;;;5096373;28;20040;-82
2022/04/23 04:34:45;;;;;;;11.52;10.32;;;9.50;99.90;;;;;;5079192;28;20467;-81
2022/04/23 04:37:11;;;;;;;11.48;9.82;;;9.50;99.90;;;;;;5113530;28;20039;-81
2022/04/23 04:39:41;;;;;;;13.05;10.00;;;9.50;99.90;;;;;;5096063;28;20117;-79
2022/04/23 04:42:07;;;;;;;11.57;10.05;;;9.50;99.90;;;;;;5079687;28;20043;-82
2022/04/23 04:44:33;;;;;;;11.73;9.55;;;9.50;99.90;;;;;;5096107;28;20079;-81
2022/04/23 04:46:59;;;;;;;10.90;9.88;;;9.50;99.90;;;;;;5062819;28;20427;-80
2022/04/23 04:49:25;;;;;;;12.63;10.10;;;9.50;99.90;;;;;;5096129;28;20122;-79
2022/04/23 04:51:51;;;;;;;11.27;10.10;;;9.50;99.90;;;;;;5095874;28;20402;-81
2022/04/23 04:54:18;;;;;;;10.75;9.65;;;9.50;99.90;;;;;;5079246;28;20046;-80
2022/04/23 04:56:47;;;;;;;11.48;9.48;;;9.40;99.90;;;;;;5095872;28;20043;-80
2022/04/23 04:59:12;;;;;;;11.52;10.43;;;9.40;99.90;;;;;;5078862;28;20544;-81
2022/04/23 05:01:38;;;;;;;10.85;9.27;;;9.50;99.90;;;;;;5095598;28;20047;-82
2022/04/23 05:04:04;;;;;;;10.52;9.48;;;9.50;99.90;;;;;;5079077;28;20089;-82
2022/04/23 05:06:29;;;;;;;11.35;10.25;;;9.50;99.90;;;;;;5062279;28;20043;-81
2022/04/23 05:08:55;;;;;;;11.55;10.13;;;9.50;99.90;;;;;;5095057;28;20054;-80
2022/04/23 05:11:21;;;;;;;11.27;9.90;;;9.50;99.90;;;;;;5095935;28;20044;-80
2022/04/23 05:13:46;;;;;;;12.32;10.07;;;9.50;99.90;;;;;;5113038;28;20044;-80
2022/04/23 05:16:12;;;;;;;11.77;10.10;;;9.50;99.90;;;;;;5113838;28;20043;-81
2022/04/23 05:18:38;;;;;;;10.75;9.63;;;9.50;99.90;;;;;;5078549;28;20089;-84
2022/04/23 05:21:03;;;;;;;11.30;10.20;;;9.50;99.90;;;;;;5095493;28;20130;-82
2022/04/23 05:23:29;;;;;;;10.80;9.70;;;9.50;99.90;;;;;;5061861;28;20044;-79
2022/04/23 05:25:55;;;;;;;11.82;10.38;;;9.60;99.90;;;;;;5078146;28;20483;-78
2022/04/23 05:28:21;;;;;;;12.35;9.98;;;9.50;99.90;;;;;;5095402;28;20035;-82
2022/04/23 05:30:47;;;;;;;11.90;9.93;;;9.60;99.90;;;;;;5061657;28;20100;-79
2022/04/23 05:33:12;;;;;;;10.70;9.60;;;9.50;99.90;;;;;;5078797;28;20043;-78
2022/04/23 05:35:38;;;;;;;10.48;9.48;;;9.60;99.90;;;;;;5078671;28;20114;-79
2022/04/23 05:38:04;;;;;;;11.68;10.30;;;9.60;99.90;;;;;;5094969;28;20046;-81
2022/04/23 05:40:29;;;;;;;11.30;10.10;;;9.60;99.90;;;;;;5078722;28;20546;-80
2022/04/23 05:42:58;;;;;;;13.15;9.88;;;9.60;99.90;;;;;;5094894;28;20041;-77
2022/04/23 05:45:24;;;;;;;10.98;9.98;;;9.60;99.90;;;;;;5095566;28;20043;-78
2022/04/23 05:47:50;;;;;;;12.30;10.18;;;9.70;99.90;;;;;;5077590;28;20126;-79
2022/04/23 05:50:15;;;;;;;10.98;9.98;;;9.60;99.90;;;;;;5095358;28;20123;-83
2022/04/23 05:52:41;;;;;;;10.80;9.70;;;9.70;99.90;;;;;;5078330;28;20032;-78
2022/04/23 05:55:08;;;;;;;11.80;10.18;;;9.70;99.90;;;;;;5112823;28;20036;-79
2022/04/23 05:57:34;;;;;;;11.25;10.18;;;9.70;99.80;;;;;;5078782;28;20408;-78
2022/04/23 05:59:59;;;;;;;11.95;10.48;;;9.70;99.70;;;;;;5112716;28;20046;-79
2022/04/23 06:02:25;;;;;;;11.00;9.90;;;9.70;99.50;;;;;;5095167;28;20373;-78
2022/04/23 06:04:52;;;;;;;12.82;10.32;;;9.80;99.50;;;;;;5094705;28;20420;-79
2022/04/23 06:07:18;;;;;;;12.05;10.25;;;9.80;99.50;;;;;;5113129;28;20043;-79
2022/04/23 06:09:44;;;;;;;11.38;10.27;;;9.70;99.50;;;;;;5078483;28;20039;-80
2022/04/23 06:12:09;;;;;;;11.05;10.02;;;9.80;99.30;;;;;;5094867;28;20485;-80
2022/04/23 06:14:35;;;;;;;12.95;10.40;;;9.80;99.00;;;;;;5095139;28;20076;-80
2022/04/23 06:17:01;;;;;;;11.20;10.10;;;9.90;99.00;;;;;;5112896;28;20491;-79
2022/04/23 06:19:30;;;;;;;11.13;10.00;;;9.90;99.00;;;;;;5095118;28;20040;-79
2022/04/23 06:21:57;;;;;;;11.63;10.00;;;9.90;98.90;;;;;;5078770;28;20357;-79
2022/04/23 06:24:23;;;;;;;10.85;9.75;;;9.90;98.80;;;;;;5095162;28;20047;-79
2022/04/23 06:26:48;;;;;;;11.15;9.98;;;9.90;98.70;;;;;;5113106;28;20371;-79
2022/04/23 06:29:14;;;;;;;12.32;10.32;;;9.90;98.60;;;;;;5094964;28;20039;-79
2022/04/23 06:31:39;;;;;;;10.90;9.90;;;9.90;98.40;;;;;;5095260;28;20047;-79
2022/04/23 06:34:05;;;;;;;10.80;9.70;;;10.00;98.40;;;;;;5112589;28;20044;-79
2022/04/23 06:36:31;;;;;;;12.57;10.43;;;10.00;98.40;;;;;;5113273;28;20464;-81
2022/04/23 06:38:56;;;;;;;11.57;10.48;;;10.00;98.30;;;;;;5094676;28;20039;-80
2022/04/23 06:41:22;;;;;;;11.82;10.73;;;10.10;98.20;;;;;;5113004;28;20039;-79
2022/04/23 06:43:47;;;;;;;11.40;10.32;;;10.10;98.00;;;;;;5113012;28;20039;-79
2022/04/23 06:46:13;;;;;;;11.25;10.18;;;10.10;98.00;;;;;;5094563;28;20051;-79
2022/04/23 06:48:39;;;;;;;12.52;11.23;;;10.10;98.00;;;;;;5077787;28;20466;-79
2022/04/23 06:51:04;;;;;;;12.13;10.88;;;10.10;98.00;;;;;;5112369;28;20479;-78
2022/04/23 06:53:30;;;;;;;11.70;10.50;;;10.10;97.90;;;;;;5094485;28;20036;-77
2022/04/23 06:55:55;;;;;;;11.30;10.10;;;10.20;98.00;;;;;;5094434;28;20077;-84
2022/04/23 06:58:22;;;;;;;11.18;9.85;;;10.20;98.00;;;;;;5094818;28;20040;-77
2022/04/23 07:00:48;;;;;;;12.40;11.10;;;10.20;97.90;;;;;;5115388;28;20046;-77
2022/04/23 07:03:13;;;;;;;12.60;11.30;;;10.20;97.80;;;;;;5098048;28;20153;-77
2022/04/23 07:05:39;;;;;;;13.32;10.35;;;10.30;97.90;;;;;;5116415;28;20508;-77
2022/04/23 07:08:05;;;;;;;12.00;10.32;;;10.40;98.10;;;;;;5097698;28;20127;-77
2022/04/23 07:10:31;;;;;;;12.10;10.45;;;10.40;98.00;;;;;;5081392;28;20062;-78
2022/04/23 07:12:57;;;;;;;11.88;10.68;;;10.50;97.60;;;;;;5064446;28;20044;-78
2022/04/23 07:15:23;;;;;;;11.65;10.10;;;10.50;97.30;;;;;;5097738;28;20518;-78
2022/04/23 07:17:49;;;;;;;12.32;11.00;;;10.50;97.30;;;;;;5098225;28;20119;-78
2022/04/23 07:20:16;;;;;;;12.50;10.90;;;10.50;97.20;;;;;;5097650;28;20440;-78
2022/04/23 07:24:03;;;;;;;15.07;10.88;;;10.50;97.00;;;;;;5081308;28;20058;-78
2022/04/23 07:25:28;;;;;;;12.85;10.88;;;10.60;97.00;;;;;;5083314;28;20104;-78
2022/04/23 07:27:53;;;;;;;11.82;10.68;;;10.70;97.00;;;;;;5064270;28;20452;-77
2022/04/23 07:30:19;;;;;;;12.38;10.57;;;10.80;96.80;;;;;;5097504;28;20092;-77
2022/04/23 07:32:45;;;;;;;11.95;10.82;;;10.80;96.50;;;;;;5115750;28;20035;-80
2022/04/23 07:37:54;;;;;;;11.57;10.48;;;10.90;96.50;;;;;;5083674;28;20044;-79
2022/04/23 07:40:20;;;;;;;15.50;10.70;;;11.00;96.30;;;;;;5080491;28;20039;-76
2022/04/23 07:42:46;;;;;;;11.70;10.60;;;11.10;96.20;;;;;;5097508;28;20051;-78
2022/04/23 07:45:12;;;;;;;11.88;10.70;;;11.20;96.10;;;;;;5097123;28;20043;-77
2022/04/23 07:47:37;;;;;;;11.45;10.45;;;11.20;96.10;;;;;;5115555;28;20031;-77
2022/04/23 07:50:04;;;;;;;11.35;10.05;;;11.30;95.80;;;;;;5097409;28;20039;-77
2022/04/23 07:52:30;;;;;;;10.82;9.70;;;11.50;95.10;;;;;;5097727;28;20043;-77
2022/04/23 07:54:56;;;;;;;14.30;9.82;;;11.60;93.80;;;;;;5097594;28;20417;-76
2022/04/23 07:57:22;;;;;;;12.55;9.75;;;11.70;93.30;;;;;;5096894;28;20375;-76
2022/04/23 07:59:48;;;;;;;10.40;9.40;;;11.80;92.70;;;;;;5097480;28;20047;-76
2022/04/23 08:02:13;;;;;;;12.68;9.32;;;12.00;91.60;;;;;;5079920;28;20043;-76
2022/04/23 08:04:39;;;;;;;11.70;9.15;;;12.10;90.60;;;;;;5097122;28;20043;-76
2022/04/23 08:07:05;;;;;;;12.57;9.63;;;12.20;90.50;;;;;;5115187;28;20088;-76
2022/04/23 08:09:31;;;;;;;12.15;8.38;;;12.40;90.10;;;;;;5114796;28;20039;-77
2022/04/23 08:11:57;;;;;;;10.60;9.25;;;12.50;90.00;;;;;;5080413;28;20039;-76
2022/04/23 08:14:23;;;;;;;13.60;8.80;;;12.60;87.90;;;;;;5114637;28;20120;-75
2022/04/23 08:16:50;;;;;;;11.02;8.95;;;12.70;85.40;;;;;;5080169;28;20046;-76
2022/04/23 08:19:17;;;;;;;12.85;9.38;;;12.70;84.00;;;;;;5114513;28;20384;-75
2022/04/23 08:21:43;;;;;;;11.07;9.23;;;12.70;81.80;;;;;;5096997;28;20078;-76
2022/04/23 08:24:08;;;;;;;10.75;9.20;;;12.80;81.60;;;;;;5080063;28;20075;-76
2022/04/23 08:26:34;;;;;;;10.32;9.15;;;12.80;82.30;;;;;;5096082;28;20460;-76
2022/04/23 08:31:44;;;;;;;13.82;8.65;;;12.90;81.20;;;;;;5099377;28;20086;-75
2022/04/23 08:34:09;;;;;;;10.57;9.40;;;13.00;80.30;;;;;;5114594;28;20081;-76
2022/04/23 08:36:36;;;;;;;9.98;8.70;;;13.00;79.40;;;;;;5114167;28;20122;-76
2022/04/23 08:39:04;;;;;;;11.70;9.02;;;13.00;78.90;;;;;;5114607;28;20054;-77
2022/04/23 08:41:30;;;;;;;10.32;9.15;;;13.00;78.30;;;;;;5096297;28;20051;-77
2022/04/23 08:43:56;;;;;;;10.75;8.70;;;13.00;78.40;;;;;;5096363;28;20157;-76
2022/04/23 08:46:23;;;;;;;10.18;9.18;;;13.00;77.50;;;;;;5079125;28;20419;-76
2022/04/23 08:48:50;;;;;;;12.48;9.32;;;13.00;76.90;;;;;;5079467;28;20032;-76
2022/04/23 08:51:18;;;;;;;10.68;9.57;;;13.00;76.40;;;;;;5079280;28;20130;-82
2022/04/23 08:53:44;;;;;;;9.93;8.93;;;13.00;75.80;;;;;;5096557;28;20097;-76
2022/04/23 08:56:09;;;;;;;11.23;9.82;;;13.00;76.30;;;;;;5096118;28;20040;-76
2022/04/23 08:58:40;;;;;;;10.27;9.27;;;12.90;75.90;;;;;;5095682;28;20039;-76
2022/04/23 09:01:06;;;;;;;14.38;9.65;;;13.00;76.30;;;;;;5096500;28;20062;-76
2022/04/23 09:03:32;;;;;;;10.48;9.48;;;13.00;76.40;;;;;;5113641;28;20040;-77
2022/04/23 09:05:57;;;;;;;11.20;9.43;;;13.00;76.00;;;;;;5114094;28;20050;-76
2022/04/23 09:08:25;;;;;;;11.25;9.93;;;13.00;76.10;;;;;;5113607;28;20047;-76
2022/04/23 09:10:54;;;;;;;13.35;9.50;;;13.00;75.20;;;;;;5078915;28;20043;-76
2022/04/23 09:13:32;;;;;;;10.88;9.18;;;13.10;75.50;;;;;;5078699;28;20062;-79
2022/04/23 09:24:20;;;;;;;10.43;9.43;;;13.30;74.70;;;;;;5084060;28;20058;-76
2022/04/23 09:27:07;;;;;;;10.38;9.38;;;13.40;74.50;;;;;;5113673;28;20039;-75
2022/04/23 09:29:33;;;;;;;10.25;9.25;;;13.40;73.10;;;;;;5113050;28;20047;-76
2022/04/23 09:32:17;;;;;;;11.45;10.32;;;13.40;74.40;;;;;;5095566;28;20035;-76
2022/04/23 09:34:42;;;;;;;12.98;9.82;;;13.50;73.10;;;;;;5095817;28;20043;-76
2022/04/23 09:37:08;;;;;;;14.73;9.60;;;13.50;74.00;;;;;;5095676;28;20036;-76
2022/04/23 09:39:35;;;;;;;11.02;9.25;;;13.50;73.20;;;;;;5095155;28;20083;-76
2022/04/23 09:42:17;;;;;;;10.93;9.82;;;13.60;72.80;;;;;;5095351;28;20498;-76
2022/04/23 09:44:43;;;;;;;9.98;9.13;;;13.60;72.10;;;;;;5113130;28;20047;-76
2022/04/23 09:47:09;;;;;;;11.63;9.23;;;13.70;72.70;;;;;;5078658;28;20204;-76
2022/04/23 09:49:35;;;;;;;10.05;9.15;;;13.70;72.80;;;;;;5061301;28;20463;-76
2022/04/23 09:52:04;;;;;;;12.55;8.82;;;13.80;72.20;;;;;;5113276;28;20044;-76
2022/04/23 09:54:31;;;;;;;11.10;8.93;;;13.80;71.90;;;;;;5078184;28;20055;-76
2022/04/23 09:56:57;;;;;;;14.13;9.35;;;13.90;71.70;;;;;;5062047;28;20471;-76
2022/04/23 09:59:23;;;;;;;10.50;8.57;;;13.90;70.80;;;;;;5078421;28;20088;-76
2022/04/23 10:01:49;;;;;;;15.63;9.15;;;14.00;71.10;;;;;;5112833;28;20040;-76
2022/04/23 10:04:35;;;;;;;9.40;8.50;;;14.10;70.30;;;;;;5113075;28;20187;-76
2022/04/23 10:07:01;;;;;;;9.20;8.27;;;14.10;69.70;;;;;;5080389;28;20043;-77
2022/04/23 10:09:27;;;;;;;10.48;9.50;;;14.20;70.40;;;;;;5061914;28;20080;-76
2022/04/23 10:12:05;;;;;;;10.73;9.70;;;14.20;70.30;;;;;;5078011;28;20095;-76
2022/04/23 10:14:34;;;;;;;10.55;9.45;;;14.30;69.70;;;;;;5060904;28;20048;-81
2022/04/23 10:17:02;;;;;;;12.15;8.77;;;14.30;69.40;;;;;;5078784;28;20043;-76
2022/04/23 10:19:28;;;;;;;10.15;8.82;;;14.40;67.90;;;;;;5078913;28;20048;-76
2022/04/23 10:22:09;;;;;;;9.18;8.23;;;14.40;67.10;;;;;;5077899;28;20482;-76
2022/04/23 10:24:43;;;;;;;10.15;8.82;;;14.50;65.50;;;;;;5062070;28;20051;-76
2022/04/23 10:27:09;;;;;;;9.30;8.40;;;14.60;65.20;;;;;;5094864;28;20119;-76
2022/04/23 10:29:35;;;;;;;10.77;8.65;;;14.60;65.20;;;;;;5094706;28;20055;-76
2022/04/23 10:32:10;;;;;;;11.05;8.57;;;14.60;65.00;;;;;;5061471;28;20047;-76
2022/04/23 10:34:36;;;;;;;16.05;8.15;;;14.60;64.00;;;;;;5113205;28;20036;-76
2022/04/23 10:37:20;;;;;;;9.95;8.38;;;14.70;65.30;;;;;;5082109;28;20436;-77
2022/04/23 10:40:06;;;;;;;9.80;8.63;;;14.80;63.50;;;;;;5116472;28;20126;-76
2022/04/23 10:42:32;;;;;;;11.35;7.93;;;14.80;63.20;;;;;;5116998;28;20047;-77
2022/04/23 10:45:03;;;;;;;11.38;8.43;;;14.80;64.50;;;;;;5116332;28;20118;-76
2022/04/23 10:47:33;;;;;;;10.18;8.10;;;14.90;63.10;;;;;;5082365;28;20079;-76
2022/04/23 10:52:42;;;;;;;8.60;7.90;;;14.90;62.40;;;;;;5116301;28;20083;-76
2022/04/23 10:55:10;;;;;;;10.68;8.60;;;15.00;63.00;;;;;;5082059;28;20086;-76
2022/04/23 10:57:35;;;;;;;10.57;8.30;;;15.10;62.30;;;;;;5098225;28;20047;-76
2022/04/23 11:00:11;;;;;;;11.85;8.70;;;15.10;61.90;;;;;;5098150;28;20032;-77
2022/04/23 11:02:39;;;;;;;9.52;8.48;;;15.20;61.20;;;;;;5098457;28;20048;-76
2022/04/23 11:13:54;;;;;;;10.00;8.10;;;15.30;60.40;;;;;;5083692;28;20085;-76
2022/04/23 11:16:24;;;;;;;8.88;7.75;;;15.30;60.40;;;;;;5081070;28;20518;-76
2022/04/23 11:18:53;;;;;;;10.65;8.18;;;15.30;60.00;;;;;;5080438;28;20484;-76
2022/04/23 11:21:24;;;;;;;9.80;8.00;;;15.40;59.30;;;;;;5114997;28;20083;-76
2022/04/23 11:23:50;;;;;;;10.32;8.50;;;15.40;59.70;;;;;;5098222;28;20130;-77
2022/04/23 11:26:22;;;;;;;9.02;7.90;;;15.50;60.40;;;;;;5081113;28;20050;-76
2022/04/23 11:28:57;;;;;;;9.05;8.15;;;15.60;59.30;;;;;;5098348;28;20035;-77
2022/04/23 11:31:23;;;;;;;8.70;7.93;;;15.60;58.70;;;;;;5098081;28;20044;-76
2022/04/23 11:33:58;;;;;;;8.55;7.75;;;15.70;58.20;;;;;;5080546;28;20249;-76
2022/04/23 11:36:28;;;;;;;9.25;8.38;;;15.70;57.00;;;;;;5080997;28;20130;-77
2022/04/23 11:38:58;;;;;;;10.50;8.13;;;15.70;57.90;;;;;;5096910;28;20475;-76
2022/04/23 11:41:32;;;;;;;11.38;8.25;;;15.70;57.20;;;;;;5081084;28;20050;-76
2022/04/23 11:43:57;;;;;;;8.85;8.05;;;15.70;56.70;;;;;;5097010;28;20043;-76
2022/04/23 11:46:23;;;;;;;8.70;7.50;;;15.70;56.40;;;;;;5097084;28;20031;-76
2022/04/23 11:48:50;;;;;;;7.57;6.88;;;15.80;56.30;;;;;;5097222;28;20062;-77
2022/04/23 11:51:18;;;;;;;13.15;7.60;;;15.80;56.20;;;;;;5115466;28;20490;-76
2022/04/23 11:53:52;;;;;;;11.63;8.38;;;15.80;56.10;;;;;;5081084;28;20494;-77
2022/04/23 11:56:25;;;;;;;9.80;7.70;;;15.90;56.00;;;;;;5115504;28;20075;-76
2022/04/23 11:58:56;;;;;;;8.90;8.10;;;15.90;55.60;;;;;;5079976;28;20177;-77
2022/04/23 12:01:22;;;;;;;13.60;8.10;;;15.90;55.70;;;;;;5080921;28;20058;-77
2022/04/23 12:03:49;;;;;;;9.48;8.57;;;15.90;56.10;;;;;;5097091;28;20465;-83
2022/04/23 12:06:15;;;;;;;11.38;8.07;;;15.90;55.80;;;;;;5115139;28;20040;-77
2022/04/23 12:08:41;;;;;;;9.85;7.88;;;16.00;56.20;;;;;;5047358;28;20043;-76
2022/04/23 12:11:22;;;;;;;8.63;7.78;;;16.00;56.30;;;;;;5114765;28;20040;-77
2022/04/23 12:13:48;;;;;;;10.27;7.43;;;16.00;56.30;;;;;;5093369;28;20093;-77
2022/04/23 12:16:39;;;;;;;8.75;7.28;;;16.10;56.70;;;;;;5059556;28;20388;-76
2022/04/23 12:19:10;;;;;;;9.20;7.50;;;16.10;53.70;;;;;;5093038;28;20122;-77
2022/04/23 12:21:36;;;;;;;8.85;7.18;;;16.20;54.60;;;;;;5076427;28;20468;-77
2022/04/23 12:24:02;;;;;;;7.75;7.05;;;16.20;54.80;;;;;;5093859;28;20495;-77
2022/04/23 12:26:35;;;;;;;11.25;7.55;;;16.30;55.10;;;;;;5076032;28;20051;-76
2022/04/23 12:42:53;;;;;;;10.98;6.43;;;16.50;52.10;;;;;;5093217;28;20087;-76
2022/04/23 12:45:20;;;;;;;13.77;7.10;;;16.50;52.10;;;;;;5075997;28;20048;-76
2022/04/23 12:47:45;;;;;;;8.32;6.78;;;16.50;52.40;;;;;;5076107;28;20062;-76
2022/04/23 12:50:11;;;;;;;9.27;6.60;;;16.60;53.10;;;;;;5075475;28;20044;-76
2022/04/23 12:52:37;;;;;;;12.48;6.38;;;16.60;52.60;;;;;;5094007;28;20044;-76
2022/04/23 12:55:19;;;;;;;10.25;7.00;;;16.60;51.80;;;;;;5092544;28;20085;-77
2022/04/23 12:57:49;;;;;;;10.15;6.95;;;16.70;50.60;;;;;;5092068;28;20046;-76
2022/04/23 13:00:16;;;;;;;7.93;6.37;;;16.70;51.10;;;;;;5075502;28;20044;-77
2022/04/23 13:02:43;;;;;;;7.57;6.05;;;16.70;50.80;;;;;;5092693;28;20040;-76
2022/04/23 13:05:09;;;;;;;8.40;6.50;;;16.70;50.10;;;;;;5075502;28;20043;-77
2022/04/23 13:10:19;;;;;;;6.55;5.88;;;16.70;49.60;;;;;;5092294;28;20469;-76
2022/04/23 13:12:45;;;;;;;8.65;5.68;;;16.70;49.80;;;;;;5075973;28;20126;-77
2022/04/23 13:15:11;;;;;;;12.45;6.68;;;16.70;50.00;;;;;;5062049;28;20051;-76
2022/04/23 13:17:38;;;;;;;6.93;5.97;;;16.80;50.30;;;;;;5095908;28;20039;-77
2022/04/23 13:20:10;;;;;;;6.32;5.68;;;16.80;50.50;;;;;;5095651;28;20118;-76